sensor_id;sensor_type;location;lat;lon;timestamp;temperature;humidity
76537;DHT22;65381;51.254;15.592;2023-03-01T00:00:05;-2.90;64.70
76537;DHT22;65381;51.254;15.592;2023-03-01T00:02:57;-2.80;64.70
76537;DHT22;65381;51.254;15.592;2023-03-01T00:05:26;-2.80;64.80
76537;DHT22;65381;51.254;15.592;2023-03-01T00:07:54;-2.90;64.80
76537;DHT22;65381;51.254;15.592;2023-03-01T00:10:22;-2.90;64.80
76537;DHT22;65381;51.254;15.592;2023-03-01T00:12:52;-2.90;64.70
76537;DHT22;65381;51.254;15.592;2023-03-01T00:15:20;-3.00;64.90
76537;DHT22;65381;51.254;15.592;2023-03-01T00:17:49;-3.00;64.90
76537;DHT22;65381;51.254;15.592;2023-03-01T00:20:18;-3.00;64.90
76537;DHT22;65381;51.254;15.592;2023-03-01T00:22:46;-3.10;64.90
76537;DHT22;65381;51.254;15.592;2023-03-01T00:25:14;-3.20;64.90
76537;DHT22;65381;51.254;15.592;2023-03-01T00:27:43;-3.20;64.90
76537;DHT22;65381;51.254;15.592;2023-03-01T00:30:11;-3.20;65.00
76537;DHT22;65381;51.254;15.592;2023-03-01T00:32:40;-3.20;65.00
76537;DHT22;65381;51.254;15.592;2023-03-01T00:35:08;-3.40;65.40
76537;DHT22;65381;51.254;15.592;2023-03-01T00:37:36;-3.30;65.50
76537;DHT22;65381;51.254;15.592;2023-03-01T00:40:06;-3.30;65.50
76537;DHT22;65381;51.254;15.592;2023-03-01T00:42:35;-3.30;65.50
76537;DHT22;65381;51.254;15.592;2023-03-01T00:45:04;-3.30;65.30
76537;DHT22;65381;51.254;15.592;2023-03-01T00:47:33;-3.40;65.40
76537;DHT22;65381;51.254;15.592;2023-03-01T00:50:00;-3.40;65.50
76537;DHT22;65381;51.254;15.592;2023-03-01T00:52:29;-3.40;65.60
76537;DHT22;65381;51.254;15.592;2023-03-01T00:54:57;-3.40;65.60
76537;DHT22;65381;51.254;15.592;2023-03-01T00:57:26;-3.40;65.60
76537;DHT22;65381;51.254;15.592;2023-03-01T00:59:54;-3.50;65.60
76537;DHT22;65381;51.254;15.592;2023-03-01T01:02:25;-3.50;65.60
76537;DHT22;65381;51.254;15.592;2023-03-01T01:04:53;-3.60;65.50
76537;DHT22;65381;51.254;15.592;2023-03-01T01:07:21;-3.60;65.40
76537;DHT22;65381;51.254;15.592;2023-03-01T01:09:50;-3.70;65.40
76537;DHT22;65381;51.254;15.592;2023-03-01T01:12:20;-3.80;65.50
76537;DHT22;65381;51.254;15.592;2023-03-01T01:14:48;-3.80;65.50
76537;DHT22;65381;51.254;15.592;2023-03-01T01:17:16;-3.90;65.60
76537;DHT22;65381;51.254;15.592;2023-03-01T01:19:44;-3.90;65.90
76537;DHT22;65381;51.254;15.592;2023-03-01T01:22:13;-3.90;65.80
76537;DHT22;65381;51.254;15.592;2023-03-01T01:24:40;-3.90;65.80
76537;DHT22;65381;51.254;15.592;2023-03-01T01:27:10;-4.00;65.80
76537;DHT22;65381;51.254;15.592;2023-03-01T01:29:38;-4.00;65.90
76537;DHT22;65381;51.254;15.592;2023-03-01T01:32:06;-4.00;66.10
76537;DHT22;65381;51.254;15.592;2023-03-01T01:34:34;-4.00;66.20
76537;DHT22;65381;51.254;15.592;2023-03-01T01:37:02;-4.00;66.20
76537;DHT22;65381;51.254;15.592;2023-03-01T01:39:30;-3.90;66.20
76537;DHT22;65381;51.254;15.592;2023-03-01T01:42:00;-3.90;66.30
76537;DHT22;65381;51.254;15.592;2023-03-01T01:44:29;-3.90;66.30
76537;DHT22;65381;51.254;15.592;2023-03-01T01:49:53;-3.90;66.30
76537;DHT22;65381;51.254;15.592;2023-03-01T01:52:29;-3.80;66.30
76537;DHT22;65381;51.254;15.592;2023-03-01T01:55:08;-3.90;66.10
76537;DHT22;65381;51.254;15.592;2023-03-01T01:57:44;-3.90;66.10
76537;DHT22;65381;51.254;15.592;2023-03-01T02:00:20;-4.00;66.20
76537;DHT22;65381;51.254;15.592;2023-03-01T02:02:51;-3.90;66.30
76537;DHT22;65381;51.254;15.592;2023-03-01T02:08:06;-3.80;66.50
76537;DHT22;65381;51.254;15.592;2023-03-01T02:10:37;-3.80;66.40
76537;DHT22;65381;51.254;15.592;2023-03-01T02:13:06;-3.80;66.40
76537;DHT22;65381;51.254;15.592;2023-03-01T02:15:36;-3.80;66.30
76537;DHT22;65381;51.254;15.592;2023-03-01T02:18:05;-3.80;66.40
76537;DHT22;65381;51.254;15.592;2023-03-01T02:23:09;-3.80;66.40
76537;DHT22;65381;51.254;15.592;2023-03-01T02:28:43;-3.80;66.20
76537;DHT22;65381;51.254;15.592;2023-03-01T02:31:17;-3.80;66.20
76537;DHT22;65381;51.254;15.592;2023-03-01T02:34:06;-3.90;66.10
76537;DHT22;65381;51.254;15.592;2023-03-01T02:36:38;-4.00;66.10
76537;DHT22;65381;51.254;15.592;2023-03-01T02:39:10;-4.10;66.20
76537;DHT22;65381;51.254;15.592;2023-03-01T02:41:45;-4.20;66.40
76537;DHT22;65381;51.254;15.592;2023-03-01T02:44:17;-4.30;66.60
76537;DHT22;65381;51.254;15.592;2023-03-01T02:46:49;-4.40;66.60
76537;DHT22;65381;51.254;15.592;2023-03-01T02:49:21;-4.40;66.80
76537;DHT22;65381;51.254;15.592;2023-03-01T02:52:06;-4.30;66.90
76537;DHT22;65381;51.254;15.592;2023-03-01T02:57:07;-4.20;66.70
76537;DHT22;65381;51.254;15.592;2023-03-01T02:59:39;-4.20;66.60
76537;DHT22;65381;51.254;15.592;2023-03-01T03:05:17;-4.30;66.60
76537;DHT22;65381;51.254;15.592;2023-03-01T03:07:47;-4.30;66.70
76537;DHT22;65381;51.254;15.592;2023-03-01T03:10:22;-4.30;66.90
76537;DHT22;65381;51.254;15.592;2023-03-01T03:12:54;-4.30;66.90
76537;DHT22;65381;51.254;15.592;2023-03-01T03:15:24;-4.30;66.80
76537;DHT22;65381;51.254;15.592;2023-03-01T03:17:56;-4.30;66.80
76537;DHT22;65381;51.254;15.592;2023-03-01T03:20:27;-4.30;66.90
76537;DHT22;65381;51.254;15.592;2023-03-01T03:22:57;-4.20;67.00
76537;DHT22;65381;51.254;15.592;2023-03-01T03:25:29;-4.20;67.10
76537;DHT22;65381;51.254;15.592;2023-03-01T03:27:58;-4.20;67.20
76537;DHT22;65381;51.254;15.592;2023-03-01T03:30:29;-4.10;67.10
76537;DHT22;65381;51.254;15.592;2023-03-01T03:32:59;-4.10;67.00
76537;DHT22;65381;51.254;15.592;2023-03-01T03:35:33;-4.10;66.90
76537;DHT22;65381;51.254;15.592;2023-03-01T03:38:05;-4.00;67.10
76537;DHT22;65381;51.254;15.592;2023-03-01T03:40:36;-4.00;67.20
76537;DHT22;65381;51.254;15.592;2023-03-01T03:43:07;-4.00;67.20
76537;DHT22;65381;51.254;15.592;2023-03-01T03:45:36;-4.00;67.20
76537;DHT22;65381;51.254;15.592;2023-03-01T03:48:06;-4.10;67.30
76537;DHT22;65381;51.254;15.592;2023-03-01T03:50:35;-4.10;67.50
76537;DHT22;65381;51.254;15.592;2023-03-01T03:53:06;-4.10;67.50
76537;DHT22;65381;51.254;15.592;2023-03-01T03:55:38;-4.10;67.40
76537;DHT22;65381;51.254;15.592;2023-03-01T03:58:10;-4.20;67.30
76537;DHT22;65381;51.254;15.592;2023-03-01T04:00:40;-4.30;67.20
76537;DHT22;65381;51.254;15.592;2023-03-01T04:03:12;-4.30;67.30
76537;DHT22;65381;51.254;15.592;2023-03-01T04:05:41;-4.40;67.30
76537;DHT22;65381;51.254;15.592;2023-03-01T04:08:12;-4.50;67.50
76537;DHT22;65381;51.254;15.592;2023-03-01T04:10:43;-4.60;67.60
76537;DHT22;65381;51.254;15.592;2023-03-01T04:13:14;-4.60;67.60
76537;DHT22;65381;51.254;15.592;2023-03-01T04:15:43;-4.60;67.60
76537;DHT22;65381;51.254;15.592;2023-03-01T04:18:14;-4.60;67.50
76537;DHT22;65381;51.254;15.592;2023-03-01T04:20:44;-4.60;67.60
76537;DHT22;65381;51.254;15.592;2023-03-01T04:23:17;-4.60;67.80
76537;DHT22;65381;51.254;15.592;2023-03-01T04:25:56;-4.60;68.00
76537;DHT22;65381;51.254;15.592;2023-03-01T04:28:31;-4.50;68.00
76537;DHT22;65381;51.254;15.592;2023-03-01T04:31:07;-4.40;67.80
76537;DHT22;65381;51.254;15.592;2023-03-01T04:33:55;-4.40;67.70
76537;DHT22;65381;51.254;15.592;2023-03-01T04:36:25;-4.50;67.70
76537;DHT22;65381;51.254;15.592;2023-03-01T04:38:56;-4.50;67.80
76537;DHT22;65381;51.254;15.592;2023-03-01T04:41:25;-4.50;67.80
76537;DHT22;65381;51.254;15.592;2023-03-01T04:43:53;-4.50;67.90
76537;DHT22;65381;51.254;15.592;2023-03-01T04:46:22;-4.50;67.90
76537;DHT22;65381;51.254;15.592;2023-03-01T04:48:50;-4.40;68.00
76537;DHT22;65381;51.254;15.592;2023-03-01T04:51:18;-4.40;68.00
76537;DHT22;65381;51.254;15.592;2023-03-01T04:53:47;-4.40;67.90
76537;DHT22;65381;51.254;15.592;2023-03-01T04:56:17;-4.50;67.80
76537;DHT22;65381;51.254;15.592;2023-03-01T04:58:53;-4.50;67.90
76537;DHT22;65381;51.254;15.592;2023-03-01T05:01:24;-4.50;67.90
76537;DHT22;65381;51.254;15.592;2023-03-01T05:03:53;-4.50;68.00
76537;DHT22;65381;51.254;15.592;2023-03-01T05:06:21;-4.50;68.10
76537;DHT22;65381;51.254;15.592;2023-03-01T05:08:49;-4.40;68.10
76537;DHT22;65381;51.254;15.592;2023-03-01T05:11:17;-4.40;68.00
76537;DHT22;65381;51.254;15.592;2023-03-01T05:13:45;-4.50;68.00
76537;DHT22;65381;51.254;15.592;2023-03-01T05:16:14;-4.60;67.90
76537;DHT22;65381;51.254;15.592;2023-03-01T05:18:43;-4.60;68.00
76537;DHT22;65381;51.254;15.592;2023-03-01T05:21:13;-4.60;68.10
76537;DHT22;65381;51.254;15.592;2023-03-01T05:23:45;-4.60;68.20
76537;DHT22;65381;51.254;15.592;2023-03-01T05:26:15;-4.60;68.20
76537;DHT22;65381;51.254;15.592;2023-03-01T05:29:00;-4.60;68.20
76537;DHT22;65381;51.254;15.592;2023-03-01T05:31:31;-4.50;68.20
76537;DHT22;65381;51.254;15.592;2023-03-01T05:33:59;-4.40;68.20
76537;DHT22;65381;51.254;15.592;2023-03-01T05:36:26;-4.40;68.30
76537;DHT22;65381;51.254;15.592;2023-03-01T05:38:55;-4.30;68.20
76537;DHT22;65381;51.254;15.592;2023-03-01T05:41:26;-4.30;68.30
76537;DHT22;65381;51.254;15.592;2023-03-01T05:43:54;-4.30;68.40
76537;DHT22;65381;51.254;15.592;2023-03-01T05:46:22;-4.30;68.50
76537;DHT22;65381;51.254;15.592;2023-03-01T05:48:56;-4.20;68.40
76537;DHT22;65381;51.254;15.592;2023-03-01T05:51:24;-4.30;68.30
76537;DHT22;65381;51.254;15.592;2023-03-01T05:53:54;-4.40;68.30
76537;DHT22;65381;51.254;15.592;2023-03-01T05:56:22;-4.50;68.30
76537;DHT22;65381;51.254;15.592;2023-03-01T05:58:50;-4.60;68.40
76537;DHT22;65381;51.254;15.592;2023-03-01T06:01:18;-4.60;68.60
76537;DHT22;65381;51.254;15.592;2023-03-01T06:03:46;-4.60;68.70
76537;DHT22;65381;51.254;15.592;2023-03-01T06:06:14;-4.60;68.90
76537;DHT22;65381;51.254;15.592;2023-03-01T06:08:42;-4.60;68.90
76537;DHT22;65381;51.254;15.592;2023-03-01T06:11:10;-4.60;69.00
76537;DHT22;65381;51.254;15.592;2023-03-01T06:13:38;-4.60;69.10
76537;DHT22;65381;51.254;15.592;2023-03-01T06:16:09;-4.50;69.20
76537;DHT22;65381;51.254;15.592;2023-03-01T06:18:38;-4.30;69.30
76537;DHT22;65381;51.254;15.592;2023-03-01T06:21:07;-4.30;69.30
76537;DHT22;65381;51.254;15.592;2023-03-01T06:23:36;-4.20;69.30
76537;DHT22;65381;51.254;15.592;2023-03-01T06:26:08;-4.10;69.20
76537;DHT22;65381;51.254;15.592;2023-03-01T06:28:37;-4.00;69.00
76537;DHT22;65381;51.254;15.592;2023-03-01T06:31:05;-4.00;69.00
76537;DHT22;65381;51.254;15.592;2023-03-01T06:33:37;-3.80;69.00
76537;DHT22;65381;51.254;15.592;2023-03-01T06:36:05;-3.80;69.10
76537;DHT22;65381;51.254;15.592;2023-03-01T06:38:33;-3.60;69.10
76537;DHT22;65381;51.254;15.592;2023-03-01T06:41:01;-3.60;69.30
76537;DHT22;65381;51.254;15.592;2023-03-01T06:43:30;-3.40;69.40
76537;DHT22;65381;51.254;15.592;2023-03-01T06:46:00;-3.20;69.70
76537;DHT22;65381;51.254;15.592;2023-03-01T06:48:28;-3.00;69.50
76537;DHT22;65381;51.254;15.592;2023-03-01T06:50:58;-2.90;69.50
76537;DHT22;65381;51.254;15.592;2023-03-01T06:53:28;-2.70;69.50
76537;DHT22;65381;51.254;15.592;2023-03-01T06:55:57;-2.60;69.60
76537;DHT22;65381;51.254;15.592;2023-03-01T06:58:25;-2.40;69.60
76537;DHT22;65381;51.254;15.592;2023-03-01T07:00:53;-2.30;69.70
76537;DHT22;65381;51.254;15.592;2023-03-01T07:03:21;-2.10;69.70
76537;DHT22;65381;51.254;15.592;2023-03-01T07:05:50;-2.00;69.70
76537;DHT22;65381;51.254;15.592;2023-03-01T07:08:22;-1.80;69.70
76537;DHT22;65381;51.254;15.592;2023-03-01T07:10:55;-1.70;69.60
76537;DHT22;65381;51.254;15.592;2023-03-01T07:13:24;-1.50;69.60
76537;DHT22;65381;51.254;15.592;2023-03-01T07:15:52;-1.30;70.00
76537;DHT22;65381;51.254;15.592;2023-03-01T07:18:21;-0.70;71.60
76537;DHT22;65381;51.254;15.592;2023-03-01T07:20:49;0.50;73.60
76537;DHT22;65381;51.254;15.592;2023-03-01T07:23:17;2.20;74.40
76537;DHT22;65381;51.254;15.592;2023-03-01T07:25:52;4.00;74.10
76537;DHT22;65381;51.254;15.592;2023-03-01T07:28:23;5.50;73.40
76537;DHT22;65381;51.254;15.592;2023-03-01T07:30:53;6.80;73.10
76537;DHT22;65381;51.254;15.592;2023-03-01T07:33:23;7.60;72.60
76537;DHT22;65381;51.254;15.592;2023-03-01T07:35:59;8.50;73.20
76537;DHT22;65381;51.254;15.592;2023-03-01T07:38:33;9.50;73.30
76537;DHT22;65381;51.254;15.592;2023-03-01T07:41:03;10.80;72.50
76537;DHT22;65381;51.254;15.592;2023-03-01T07:43:32;11.50;71.70
76537;DHT22;65381;51.254;15.592;2023-03-01T07:46:00;12.10;71.20
76537;DHT22;65381;51.254;15.592;2023-03-01T07:48:31;12.70;71.10
76537;DHT22;65381;51.254;15.592;2023-03-01T07:51:04;13.30;70.60
76537;DHT22;65381;51.254;15.592;2023-03-01T07:53:33;13.90;69.60
76537;DHT22;65381;51.254;15.592;2023-03-01T07:56:09;14.00;68.80
76537;DHT22;65381;51.254;15.592;2023-03-01T07:58:42;14.20;69.20
76537;DHT22;65381;51.254;15.592;2023-03-01T08:01:16;14.60;69.30
76537;DHT22;65381;51.254;15.592;2023-03-01T08:03:45;15.30;68.70
76537;DHT22;65381;51.254;15.592;2023-03-01T08:06:16;15.70;67.60
76537;DHT22;65381;51.254;15.592;2023-03-01T08:08:45;16.00;67.30
76537;DHT22;65381;51.254;15.592;2023-03-01T08:11:14;16.00;66.80
76537;DHT22;65381;51.254;15.592;2023-03-01T08:13:43;16.00;66.80
76537;DHT22;65381;51.254;15.592;2023-03-01T08:16:13;15.80;67.50
76537;DHT22;65381;51.254;15.592;2023-03-01T08:18:42;16.40;67.40
76537;DHT22;65381;51.254;15.592;2023-03-01T08:21:16;17.10;66.70
76537;DHT22;65381;51.254;15.592;2023-03-01T08:23:45;18.00;64.70
76537;DHT22;65381;51.254;15.592;2023-03-01T08:26:16;18.10;64.50
76537;DHT22;65381;51.254;15.592;2023-03-01T08:28:46;18.30;64.00
76537;DHT22;65381;51.254;15.592;2023-03-01T08:31:26;18.60;63.30
76537;DHT22;65381;51.254;15.592;2023-03-01T08:33:59;18.70;62.70
76537;DHT22;65381;51.254;15.592;2023-03-01T08:36:31;18.70;62.40
76537;DHT22;65381;51.254;15.592;2023-03-01T08:39:01;18.70;62.40
76537;DHT22;65381;51.254;15.592;2023-03-01T08:41:29;18.60;62.80
76537;DHT22;65381;51.254;15.592;2023-03-01T08:43:58;19.10;62.40
76537;DHT22;65381;51.254;15.592;2023-03-01T08:46:32;19.50;61.60
76537;DHT22;65381;51.254;15.592;2023-03-01T08:49:04;19.70;60.40
76537;DHT22;65381;51.254;15.592;2023-03-01T08:51:35;20.10;59.80
76537;DHT22;65381;51.254;15.592;2023-03-01T08:54:09;19.90;59.40
76537;DHT22;65381;51.254;15.592;2023-03-01T08:56:38;19.40;57.40
76537;DHT22;65381;51.254;15.592;2023-03-01T08:59:09;18.60;58.00
76537;DHT22;65381;51.254;15.592;2023-03-01T09:01:38;18.20;58.60
76537;DHT22;65381;51.254;15.592;2023-03-01T09:04:06;18.30;58.60
76537;DHT22;65381;51.254;15.592;2023-03-01T09:06:34;18.70;58.60
76537;DHT22;65381;51.254;15.592;2023-03-01T09:09:06;19.10;58.20
76537;DHT22;65381;51.254;15.592;2023-03-01T09:11:35;19.20;56.50
76537;DHT22;65381;51.254;15.592;2023-03-01T09:14:06;18.70;55.90
76537;DHT22;65381;51.254;15.592;2023-03-01T09:16:34;18.90;55.90
76537;DHT22;65381;51.254;15.592;2023-03-01T09:19:06;18.90;55.20
76537;DHT22;65381;51.254;15.592;2023-03-01T09:21:37;18.90;54.80
76537;DHT22;65381;51.254;15.592;2023-03-01T09:24:13;18.90;53.40
76537;DHT22;65381;51.254;15.592;2023-03-01T09:26:43;18.60;52.90
76537;DHT22;65381;51.254;15.592;2023-03-01T09:29:16;19.00;52.70
76537;DHT22;65381;51.254;15.592;2023-03-01T09:31:45;18.90;52.80
76537;DHT22;65381;51.254;15.592;2023-03-01T09:34:14;18.90;53.00
76537;DHT22;65381;51.254;15.592;2023-03-01T09:36:43;19.10;51.20
76537;DHT22;65381;51.254;15.592;2023-03-01T09:39:11;18.20;47.50
76537;DHT22;65381;51.254;15.592;2023-03-01T09:42:01;17.00;46.10
76537;DHT22;65381;51.254;15.592;2023-03-01T09:44:53;16.20;47.60
76537;DHT22;65381;51.254;15.592;2023-03-01T09:47:31;15.50;47.20
76537;DHT22;65381;51.254;15.592;2023-03-01T09:50:19;15.30;47.20
76537;DHT22;65381;51.254;15.592;2023-03-01T09:53:05;15.40;45.60
76537;DHT22;65381;51.254;15.592;2023-03-01T09:55:42;15.00;45.40
76537;DHT22;65381;51.254;15.592;2023-03-01T10:09:40;16.00;45.10
76537;DHT22;65381;51.254;15.592;2023-03-01T10:12:16;16.00;45.50
76537;DHT22;65381;51.254;15.592;2023-03-01T10:14:54;15.90;44.00
76537;DHT22;65381;51.254;15.592;2023-03-01T10:22:42;16.20;43.90
76537;DHT22;65381;51.254;15.592;2023-03-01T10:25:15;16.50;44.30
76537;DHT22;65381;51.254;15.592;2023-03-01T10:27:51;16.60;44.50
76537;DHT22;65381;51.254;15.592;2023-03-01T10:30:46;17.30;44.90
76537;DHT22;65381;51.254;15.592;2023-03-01T10:33:29;17.50;44.90
76537;DHT22;65381;51.254;15.592;2023-03-01T10:35:58;17.40;43.90
76537;DHT22;65381;51.254;15.592;2023-03-01T10:38:30;17.40;44.20
76537;DHT22;65381;51.254;15.592;2023-03-01T10:41:05;17.80;45.00
76537;DHT22;65381;51.254;15.592;2023-03-01T10:43:46;18.90;44.70
76537;DHT22;65381;51.254;15.592;2023-03-01T10:46:37;19.10;40.90
76537;DHT22;65381;51.254;15.592;2023-03-01T10:49:18;17.70;41.10
76537;DHT22;65381;51.254;15.592;2023-03-01T10:51:50;17.30;41.40
76537;DHT22;65381;51.254;15.592;2023-03-01T10:54:27;17.00;41.20
76537;DHT22;65381;51.254;15.592;2023-03-01T10:56:59;17.00;39.90
76537;DHT22;65381;51.254;15.592;2023-03-01T10:59:33;16.60;40.30
76537;DHT22;65381;51.254;15.592;2023-03-01T11:02:17;16.80;41.20
76537;DHT22;65381;51.254;15.592;2023-03-01T11:07:56;16.90;40.70
76537;DHT22;65381;51.254;15.592;2023-03-01T11:10:34;16.90;40.70
76537;DHT22;65381;51.254;15.592;2023-03-01T11:13:17;16.30;39.10
76537;DHT22;65381;51.254;15.592;2023-03-01T11:16:05;15.80;39.60
76537;DHT22;65381;51.254;15.592;2023-03-01T11:18:35;16.40;41.00
76537;DHT22;65381;51.254;15.592;2023-03-01T11:21:16;17.50;40.50
76537;DHT22;65381;51.254;15.592;2023-03-01T11:23:46;18.00;40.10
76537;DHT22;65381;51.254;15.592;2023-03-01T11:26:15;18.20;40.30
76537;DHT22;65381;51.254;15.592;2023-03-01T11:28:46;18.80;40.40
76537;DHT22;65381;51.254;15.592;2023-03-01T11:31:17;18.90;39.90
76537;DHT22;65381;51.254;15.592;2023-03-01T11:36:41;18.30;40.10
76537;DHT22;65381;51.254;15.592;2023-03-01T11:39:34;18.20;39.80
76537;DHT22;65381;51.254;15.592;2023-03-01T11:42:18;18.20;39.70
76537;DHT22;65381;51.254;15.592;2023-03-01T11:44:52;18.40;39.30
76537;DHT22;65381;51.254;15.592;2023-03-01T11:52:53;17.60;37.60
76537;DHT22;65381;51.254;15.592;2023-03-01T11:58:32;16.70;37.00
76537;DHT22;65381;51.254;15.592;2023-03-01T12:06:59;16.40;36.30
76537;DHT22;65381;51.254;15.592;2023-03-01T12:15:47;15.60;37.50
76537;DHT22;65381;51.254;15.592;2023-03-01T12:29:42;14.90;37.40
76537;DHT22;65381;51.254;15.592;2023-03-01T12:34:55;14.60;37.10
76537;DHT22;65381;51.254;15.592;2023-03-01T12:37:51;14.90;37.10
76537;DHT22;65381;51.254;15.592;2023-03-01T12:46:19;14.60;37.20
76537;DHT22;65381;51.254;15.592;2023-03-01T12:49:07;14.40;37.50
76537;DHT22;65381;51.254;15.592;2023-03-01T12:51:38;14.40;37.40
76537;DHT22;65381;51.254;15.592;2023-03-01T12:54:15;15.00;37.90
76537;DHT22;65381;51.254;15.592;2023-03-01T12:56:45;15.30;37.80
76537;DHT22;65381;51.254;15.592;2023-03-01T12:59:59;15.30;37.90
76537;DHT22;65381;51.254;15.592;2023-03-01T13:02:37;15.20;38.00
76537;DHT22;65381;51.254;15.592;2023-03-01T13:08:27;14.30;37.80
76537;DHT22;65381;51.254;15.592;2023-03-01T13:11:18;13.80;37.70
76537;DHT22;65381;51.254;15.592;2023-03-01T13:13:47;13.40;38.30
76537;DHT22;65381;51.254;15.592;2023-03-01T13:18:48;13.70;39.20
76537;DHT22;65381;51.254;15.592;2023-03-01T13:21:30;14.20;39.50
76537;DHT22;65381;51.254;15.592;2023-03-01T13:23:59;14.40;38.70
76537;DHT22;65381;51.254;15.592;2023-03-01T13:26:29;14.10;39.10
76537;DHT22;65381;51.254;15.592;2023-03-01T13:28:57;14.30;39.50
76537;DHT22;65381;51.254;15.592;2023-03-01T13:34:03;14.10;39.80
76537;DHT22;65381;51.254;15.592;2023-03-01T13:39:14;14.40;39.80
76537;DHT22;65381;51.254;15.592;2023-03-01T13:41:55;14.20;40.00
76537;DHT22;65381;51.254;15.592;2023-03-01T13:44:33;14.00;40.30
76537;DHT22;65381;51.254;15.592;2023-03-01T13:49:47;13.20;40.40
76537;DHT22;65381;51.254;15.592;2023-03-01T13:52:52;13.10;40.80
76537;DHT22;65381;51.254;15.592;2023-03-01T13:55:28;13.30;41.00
76537;DHT22;65381;51.254;15.592;2023-03-01T13:58:00;13.10;40.50
76537;DHT22;65381;51.254;15.592;2023-03-01T14:00:39;12.80;40.50
76537;DHT22;65381;51.254;15.592;2023-03-01T14:03:12;12.50;40.50
76537;DHT22;65381;51.254;15.592;2023-03-01T14:05:43;12.40;40.40
76537;DHT22;65381;51.254;15.592;2023-03-01T14:08:24;12.10;40.60
76537;DHT22;65381;51.254;15.592;2023-03-01T14:13:51;11.70;40.70
76537;DHT22;65381;51.254;15.592;2023-03-01T14:19:18;11.30;40.80
76537;DHT22;65381;51.254;15.592;2023-03-01T14:27:18;11.10;41.20
76537;DHT22;65381;51.254;15.592;2023-03-01T14:30:21;11.00;41.20
76537;DHT22;65381;51.254;15.592;2023-03-01T14:33:00;10.70;41.20
76537;DHT22;65381;51.254;15.592;2023-03-01T14:35:31;10.10;41.20
76537;DHT22;65381;51.254;15.592;2023-03-01T14:37:59;9.80;41.60
76537;DHT22;65381;51.254;15.592;2023-03-01T14:40:30;9.70;41.80
76537;DHT22;65381;51.254;15.592;2023-03-01T14:43:01;9.50;41.90
76537;DHT22;65381;51.254;15.592;2023-03-01T14:45:32;9.30;42.00
76537;DHT22;65381;51.254;15.592;2023-03-01T14:48:03;9.30;42.10
76537;DHT22;65381;51.254;15.592;2023-03-01T14:50:35;9.30;42.20
76537;DHT22;65381;51.254;15.592;2023-03-01T14:53:05;9.40;41.90
76537;DHT22;65381;51.254;15.592;2023-03-01T14:55:38;9.20;41.90
76537;DHT22;65381;51.254;15.592;2023-03-01T14:58:18;9.00;42.00
76537;DHT22;65381;51.254;15.592;2023-03-01T15:01:03;8.70;42.20
76537;DHT22;65381;51.254;15.592;2023-03-01T15:06:08;8.30;42.60
76537;DHT22;65381;51.254;15.592;2023-03-01T15:08:37;8.10;42.60
76537;DHT22;65381;51.254;15.592;2023-03-01T15:11:24;8.00;42.60
76537;DHT22;65381;51.254;15.592;2023-03-01T15:13:54;7.60;42.50
76537;DHT22;65381;51.254;15.592;2023-03-01T15:18:59;6.90;42.60
76537;DHT22;65381;51.254;15.592;2023-03-01T15:21:38;6.70;42.70
76537;DHT22;65381;51.254;15.592;2023-03-01T15:27:02;6.10;43.00
76537;DHT22;65381;51.254;15.592;2023-03-01T15:29:36;5.80;43.10
76537;DHT22;65381;51.254;15.592;2023-03-01T15:32:40;5.70;43.20
76537;DHT22;65381;51.254;15.592;2023-03-01T15:35:44;5.50;43.30
76537;DHT22;65381;51.254;15.592;2023-03-01T15:38:56;5.30;43.40
76537;DHT22;65381;51.254;15.592;2023-03-01T15:41:27;5.10;43.40
76537;DHT22;65381;51.254;15.592;2023-03-01T15:43:59;5.00;43.50
76537;DHT22;65381;51.254;15.592;2023-03-01T15:46:35;5.00;43.60
76537;DHT22;65381;51.254;15.592;2023-03-01T15:49:18;4.80;43.60
76537;DHT22;65381;51.254;15.592;2023-03-01T15:51:49;4.70;43.80
76537;DHT22;65381;51.254;15.592;2023-03-01T15:54:19;4.50;43.70
76537;DHT22;65381;51.254;15.592;2023-03-01T15:56:49;4.50;43.80
76537;DHT22;65381;51.254;15.592;2023-03-01T15:59:18;4.40;43.90
76537;DHT22;65381;51.254;15.592;2023-03-01T16:01:48;4.20;43.90
76537;DHT22;65381;51.254;15.592;2023-03-01T16:04:19;4.10;44.00
76537;DHT22;65381;51.254;15.592;2023-03-01T16:06:52;4.00;44.10
76537;DHT22;65381;51.254;15.592;2023-03-01T16:09:26;3.90;44.10
76537;DHT22;65381;51.254;15.592;2023-03-01T16:11:54;3.90;44.20
76537;DHT22;65381;51.254;15.592;2023-03-01T16:14:25;3.70;44.20
76537;DHT22;65381;51.254;15.592;2023-03-01T16:16:55;3.60;44.20
76537;DHT22;65381;51.254;15.592;2023-03-01T16:19:24;3.60;44.30
76537;DHT22;65381;51.254;15.592;2023-03-01T16:21:52;3.50;44.40
76537;DHT22;65381;51.254;15.592;2023-03-01T16:24:21;3.30;44.50
76537;DHT22;65381;51.254;15.592;2023-03-01T16:26:49;3.30;44.50
76537;DHT22;65381;51.254;15.592;2023-03-01T16:29:18;3.10;44.60
76537;DHT22;65381;51.254;15.592;2023-03-01T16:31:47;3.00;44.60
76537;DHT22;65381;51.254;15.592;2023-03-01T16:34:16;2.90;44.70
76537;DHT22;65381;51.254;15.592;2023-03-01T16:36:44;2.80;44.80
76537;DHT22;65381;51.254;15.592;2023-03-01T16:39:16;2.70;44.70
76537;DHT22;65381;51.254;15.592;2023-03-01T16:41:45;2.60;44.80
76537;DHT22;65381;51.254;15.592;2023-03-01T16:44:14;2.50;44.70
76537;DHT22;65381;51.254;15.592;2023-03-01T16:46:42;2.30;44.80
76537;DHT22;65381;51.254;15.592;2023-03-01T16:49:11;2.20;45.00
76537;DHT22;65381;51.254;15.592;2023-03-01T16:51:40;2.10;45.00
76537;DHT22;65381;51.254;15.592;2023-03-01T16:54:14;2.00;45.10
76537;DHT22;65381;51.254;15.592;2023-03-01T16:56:43;2.00;45.10
76537;DHT22;65381;51.254;15.592;2023-03-01T16:59:13;1.90;45.20
76537;DHT22;65381;51.254;15.592;2023-03-01T17:01:41;1.80;45.30
76537;DHT22;65381;51.254;15.592;2023-03-01T17:04:12;1.80;45.30
76537;DHT22;65381;51.254;15.592;2023-03-01T17:06:40;1.70;45.40
76537;DHT22;65381;51.254;15.592;2023-03-01T17:09:10;1.60;45.50
76537;DHT22;65381;51.254;15.592;2023-03-01T17:11:40;1.50;45.50
76537;DHT22;65381;51.254;15.592;2023-03-01T17:14:10;1.50;45.50
76537;DHT22;65381;51.254;15.592;2023-03-01T17:16:38;1.40;45.60
76537;DHT22;65381;51.254;15.592;2023-03-01T17:19:08;1.40;45.80
76537;DHT22;65381;51.254;15.592;2023-03-01T17:21:39;1.30;45.90
76537;DHT22;65381;51.254;15.592;2023-03-01T17:24:08;1.30;46.00
76537;DHT22;65381;51.254;15.592;2023-03-01T17:26:38;1.20;46.10
76537;DHT22;65381;51.254;15.592;2023-03-01T17:29:09;1.20;46.10
76537;DHT22;65381;51.254;15.592;2023-03-01T17:31:40;1.20;46.10
76537;DHT22;65381;51.254;15.592;2023-03-01T17:34:11;1.10;46.20
76537;DHT22;65381;51.254;15.592;2023-03-01T17:36:41;1.10;46.20
76537;DHT22;65381;51.254;15.592;2023-03-01T17:39:11;1.00;46.20
76537;DHT22;65381;51.254;15.592;2023-03-01T17:41:42;1.00;46.30
76537;DHT22;65381;51.254;15.592;2023-03-01T17:44:14;0.90;46.50